Flight Track Log - Related Links

Times and Time Zones

All times are in EST time to prevent confusion due to time zone crossing. See the N789EX flight status page for this flight to view local times or setup timezone preferences in your user account.

Time Position Orientation Groundspeed Altitude Reporting Facility
EST Latitude Longitude Course Direction KTS MPH feet Rate Location/Type
Fri 12:50:08 PM 47.5013 -122.2730 144° Southeast 190 219 1,600  Level FlightAware ADS-B
Fri 12:50:19 PM 47.4936 -122.2630 139° Southeast 211 243 1,800 1,143 Climbing FlightAware ADS-B
Fri 12:50:29 PM 47.4865 -122.2530 136° Southeast 224 258 2,000 1,875 Climbing FlightAware ADS-B
Fri 12:50:35 PM 47.4814 -122.2460 137° Southeast 227 261 2,300 2,286 Climbing FlightAware ADS-B
Fri 12:50:50 PM 47.4691 -122.2310 140° Southeast 245 282 2,800 2,100 Climbing FlightAware ADS-B
Fri 12:50:55 PM 47.4646 -122.2250 138° Southeast 248 285 3,000 2,727 Climbing FlightAware ADS-B
Fri 12:51:01 PM 47.4597 -122.2180 136° Southeast 252 290 3,300 3,000 Climbing FlightAware ADS-B
Fri 12:51:05 PM 47.4565 -122.2130 133° Southeast 257 296 3,500 2,571 Climbing FlightAware ADS-B
Fri 12:51:08 PM 47.4543 -122.2090 129° Southeast 260 299 3,600 3,000 Climbing FlightAware ADS-B
Fri 12:51:11 PM 47.4525 -122.2050 124° Southeast 265 305 3,800 3,000 Climbing FlightAware ADS-B
Fri 12:51:14 PM 47.4506 -122.2000 119° Southeast 269 310 3,900 2,571 Climbing FlightAware ADS-B
Fri 12:51:18 PM 47.4488 -122.1920 108° East 274 315 4,100 3,000 Climbing FlightAware ADS-B
Fri 12:51:22 PM 47.4477 -122.1850 103° East 279 321 4,300 3,750 Climbing FlightAware ADS-B
Fri 12:51:26 PM 47.4472 -122.1770 95° East 282 325 4,600 3,158 Climbing FlightAware ADS-B
Fri 12:51:41 PM 47.4464 -122.1480 92° East 287 330 5,300 3,097 Climbing FlightAware ADS-B
Fri 12:51:57 PM 47.4454 -122.1170 93° East 290 334 6,200 3,097 Climbing FlightAware ADS-B
Fri 12:52:12 PM 47.4444 -122.0870 93° East 294 338 6,900 2,800 Climbing FlightAware ADS-B
Fri 12:52:27 PM 47.4434 -122.0560 93° East 299 344 7,600 2,897 Climbing FlightAware ADS-B
Fri 12:52:41 PM 47.4424 -122.0280 93° East 303 349 8,300 2,897 Climbing FlightAware ADS-B
Fri 12:52:56 PM 47.4411 -121.9960 93° East 307 353 9,000 2,903 Climbing FlightAware ADS-B
Fri 12:53:12 PM 47.4398 -121.9630 93° East 310 357 9,800 2,739 Climbing FlightAware ADS-B
Fri 12:53:42 PM 47.4372 -121.8990 93° East 315 362 11,100 2,339 Climbing FlightAware ADS-B
Fri 12:54:11 PM 47.4345 -121.8350 94° East 330 380 12,100 1,862 Climbing FlightAware ADS-B
Fri 12:54:40 PM 47.4317 -121.7690 94° East 351 404 12,900 1,552 Climbing FlightAware ADS-B
Fri 12:55:09 PM 47.4286 -121.6960 94° East 370 426 13,600 1,600 Climbing FlightAware ADS-B
Fri 12:55:40 PM 47.4278 -121.6180 91° East 384 442 14,500 1,770 Climbing FlightAware ADS-B
Fri 12:56:10 PM 47.4273 -121.5360 90° East 396 456 15,400 1,377 Climbing FlightAware ADS-B
Fri 12:56:41 PM 47.4264 -121.4510 91° East 423 487 15,900 1,082 Climbing FlightAware ADS-B
Fri 12:57:11 PM 47.4249 -121.3620 91° East 443 510 16,500 700 Climbing FlightAware ADS-B
Fri 12:57:41 PM 47.4233 -121.2700 91° East 440 506 16,600 197 Climbing FlightAware ADS-B
Fri 12:58:12 PM 47.4216 -121.1800 92° East 435 501 16,700  Climbing FlightAware ADS-B
Fri 12:58:42 PM 47.4201 -121.0880 91° East 447 514 16,600 400 Descending FlightAware ADS-B
Fri 12:59:12 PM 47.4183 -120.9980 92° East 438 504 17,100 500 Climbing FlightAware ADS-B
Fri 12:59:42 PM 47.4165 -120.9080 92° East 430 495 17,100  Level FlightAware ADS-B
Fri 01:00:13 PM 47.4148 -120.8170 92° East 433 498 17,100 -97 Level FlightAware ADS-B
Fri 01:00:44 PM 47.4129 -120.7270 92° East 434 499 17,000 -81 Descending FlightAware ADS-B
Fri 01:01:27 PM 47.4101 -120.5990 92° East 433 498 17,000  Level FlightAware ADS-B
Fri 01:02:01 PM 47.4078 -120.4980 92° East 433 498 17,000 -727 Level FlightAware ADS-B
Fri 01:02:33 PM 47.4056 -120.4060 92° East 434 499 16,200 -1,739 Descending FlightAware ADS-B
Fri 01:03:10 PM 47.4116 -120.3000 85° East 428 493 15,000 -1,950 Descending FlightAware ADS-B
Fri 01:03:13 PM 47.4142 -120.2920 64° Northeast 406 467 14,900 -1,286 Descending FlightAware ADS-B
Fri 01:04:20 PM 47.4667 -120.1533 64° Northeast 384 442 13,500 -1,406 Descending Seattle Center
Fri 01:05:21 PM 47.5158 -120.0278 60° Northeast 336 387 11,900 -1,475 Descending Seattle Center
Fri 01:06:22 PM 47.5492 -119.9078 68° East 319 367 10,500 -885 Descending Seattle Center
Fri 01:07:23 PM 47.5833 -119.7858 67° East 320 368 10,100 -197 Descending Seattle Center
Fri 01:08:24 PM 47.6125 -119.6675 70° East 308 354 10,100  Level Seattle Center
Fri 01:09:25 PM 47.6353 -119.5514 74° East 303 349 10,100  Level Seattle Center
Fri 01:10:26 PM 47.6386 -119.4203 88° East 314 361 10,100  Level Seattle Center
Fri 01:11:26 PM 47.6419 -119.2803 88° East 315 362 10,100 496 Level Seattle Center
Fri 01:12:27 PM 47.6053 -119.1667 116° Southeast 339 390 11,100 1,449 Climbing Seattle Center
Fri 01:18:16 PM 47.3616 -119.8280 116° Southeast 381 438 20,000 1,391 Climbing FlightAware ADS-B
Fri 01:18:51 PM 47.3384 -119.9140 248° West 382 440 20,000  Level FlightAware ADS-B
Fri 01:19:22 PM 47.3186 -119.9870 248° West 381 438 20,000  Level FlightAware ADS-B
Fri 01:19:53 PM 47.2978 -120.0630 248° West 384 442 20,000  Level FlightAware ADS-B
Fri 01:20:24 PM 47.2776 -120.1370 248° West 387 445 20,000  Level FlightAware ADS-B
Fri 01:20:54 PM 47.2574 -120.2100 248° West 387 445 20,000  Level FlightAware ADS-B
Fri 01:21:24 PM 47.2370 -120.2830 248° West 384 442 20,000  Level FlightAware ADS-B
Fri 01:23:00 PM 47.2015 -120.4932 256° West  Level FlightAware Approximate
Fri 01:24:00 PM 47.1753 -120.6261 246° West  Level FlightAware Approximate
Fri 01:25:00 PM 47.1373 -120.7492 246° West  Level FlightAware Approximate
Fri 01:26:00 PM 47.0992 -120.8722 246° West  Level FlightAware Approximate
Fri 01:27:00 PM 47.0610 -120.9949 245° Southwest  Level FlightAware Approximate
Fri 01:28:00 PM 47.0228 -121.1176 246° West  Level FlightAware Approximate
Fri 01:29:00 PM 46.9849 -121.2405 246° West  Level FlightAware Approximate
Fri 01:30:00 PM 46.9468 -121.3631 246° West  Level FlightAware Approximate
Fri 01:31:00 PM 46.9087 -121.4856 246° West  Level FlightAware Approximate
Fri 01:32:00 PM 46.8710 -121.6083 247° West  Level FlightAware Approximate
Fri 01:33:00 PM 46.8342 -121.7315 246° West  Level FlightAware Approximate
Fri 01:34:00 PM 46.7973 -121.8545 246° West  Level FlightAware Approximate
Fri 01:35:00 PM 46.7603 -121.9774 246° West  Level FlightAware Approximate
Fri 01:36:00 PM 46.7233 -122.1002 247° West  Level FlightAware Approximate
Fri 01:37:00 PM 46.6866 -122.2231 246° West  Level FlightAware Approximate
Fri 01:38:00 PM 46.6497 -122.3458 246° West  Level FlightAware Approximate
Fri 01:39:00 PM 46.6123 -122.4659 238° Southwest  Level FlightAware Approximate
Fri 01:40:00 PM 46.5687 -122.5833 247° West  Level FlightAware Approximate
Fri 01:41:00 PM 46.5326 -122.7062 247° West  Level FlightAware Approximate
Fri 01:42:00 PM 46.5000 -122.8300 270° West  Level FlightAware Approximate
Fri 01:43:00 PM 46.4563 -122.9471 241° Southwest  Level FlightAware Approximate
Fri 01:44:00 PM 46.4120 -123.0639 244° Southwest  Level FlightAware Approximate
Fri 01:45:00 PM 46.3755 -123.1862 248° West  Level FlightAware Approximate
Fri 01:46:00 PM 46.3403 -123.3092 248° West  Level FlightAware Approximate
Fri 01:47:00 PM 46.2989 -123.4279 240° Southwest  Level FlightAware Approximate
Fri 01:48:00 PM 46.2528 -123.5430 240° Southwest  Level FlightAware Approximate
Fri 01:49:00 PM 46.2167 -123.6638 270° West  Level FlightAware Approximate
Fri 01:50:00 PM 46.1776 -123.7838 244° Southwest  Level FlightAware Approximate
Fri 01:51:00 PM 46.1500 -123.8667 244° Southwest  Level FlightAware Approximate
Fri 01:52:00 PM 46.1580 -123.8787 244° Southwest  Level Estimated
Fri 01:53:00 PM 46.1580 -123.8787 244° Southwest  Level Estimated
Fri 01:54:00 PM 46.1580 -123.8787 244° Southwest  Level Estimated
Fri 01:55:00 PM 46.1580 -123.8787 244° Southwest  Level Estimated
Fri 01:56:00 PM 46.1580 -123.8787 244° Southwest  Level Estimated
Fri 01:57:00 PM 46.1580 -123.8787 244° Southwest  Level Estimated
Fri 01:58:00 PM 46.1580 -123.8787 244° Southwest  Level Estimated
Fri 01:59:00 PM 46.1580 -123.8787 244° Southwest  Level Estimated
Fri 02:00:00 PM 46.1580 -123.8787 244° Southwest  Level Estimated
Fri 02:01:00 PM 46.1580 -123.8787 244° Southwest  Level Estimated
Fri 02:02:00 PM 46.1580 -123.8787 244° Southwest  Level Estimated
Fri 02:03:00 PM 46.1580 -123.8787 244° Southwest  Level Estimated
Fri 02:04:00 PM 46.1580 -123.8787 244° Southwest  Level Estimated
Fri 02:05:00 PM 46.1580 -123.8787 244° Southwest  Level Estimated
Fri 02:06:00 PM 46.1580 -123.8787 244° Southwest  Level Estimated

Login

Don't have an account? Register now (free) for customized features, flight alerts, and more!